sensor_id;sensor_type;location;lat;lon;timestamp;P1;durP1;ratioP1;P2;durP2;ratioP2
60718;SDS011;46567;51.660;5.824;2023-05-10T00:00:57;18.8;;;13.0;;
60718;SDS011;46567;51.660;5.824;2023-05-10T00:05:58;17.9;;;12.9;;
60718;SDS011;46567;51.660;5.824;2023-05-10T00:10:57;18.2;;;12.9;;
60718;SDS011;46567;51.660;5.824;2023-05-10T00:15:57;17.8;;;12.6;;
60718;SDS011;46567;51.660;5.824;2023-05-10T00:20:57;17.9;;;12.5;;
60718;SDS011;46567;51.660;5.824;2023-05-10T00:25:57;17.4;;;12.8;;
60718;SDS011;46567;51.660;5.824;2023-05-10T00:30:57;17.9;;;12.1;;
60718;SDS011;46567;51.660;5.824;2023-05-10T00:35:57;16.7;;;13.1;;
60718;SDS011;46567;51.660;5.824;2023-05-10T00:40:57;18.0;;;12.8;;
60718;SDS011;46567;51.660;5.824;2023-05-10T00:45:57;18.7;;;12.1;;
60718;SDS011;46567;51.660;5.824;2023-05-10T00:50:57;18.9;;;12.9;;
60718;SDS011;46567;51.660;5.824;2023-05-10T00:55:57;17.8;;;12.6;;
60718;SDS011;46567;51.660;5.824;2023-05-10T01:00:57;20.0;;;12.9;;
60718;SDS011;46567;51.660;5.824;2023-05-10T01:05:57;21.1;;;13.6;;
60718;SDS011;46567;51.660;5.824;2023-05-10T01:10:57;18.5;;;13.0;;
60718;SDS011;46567;51.660;5.824;2023-05-10T01:15:57;20.7;;;12.8;;
60718;SDS011;46567;51.660;5.824;2023-05-10T01:21:31;19.3;;;13.0;;
60718;SDS011;46567;51.660;5.824;2023-05-10T01:28:35;19.8;;;12.9;;
60718;SDS011;46567;51.660;5.824;2023-05-10T01:34:02;20.8;;;13.8;;
60718;SDS011;46567;51.660;5.824;2023-05-10T01:37:46;21.6;;;13.2;;
60718;SDS011;46567;51.660;5.824;2023-05-10T01:42:26;21.9;;;14.8;;
60718;SDS011;46567;51.660;5.824;2023-05-10T01:50:57;27.4;;;16.0;;
60718;SDS011;46567;51.660;5.824;2023-05-10T01:55:57;23.8;;;15.7;;
60718;SDS011;46567;51.660;5.824;2023-05-10T02:01:01;25.9;;;16.7;;
60718;SDS011;46567;51.660;5.824;2023-05-10T02:05:57;27.6;;;17.2;;
60718;SDS011;46567;51.660;5.824;2023-05-10T02:10:57;30.1;;;18.3;;
60718;SDS011;46567;51.660;5.824;2023-05-10T02:15:57;34.8;;;19.2;;
60718;SDS011;46567;51.660;5.824;2023-05-10T02:20:57;32.0;;;18.9;;
60718;SDS011;46567;51.660;5.824;2023-05-10T02:25:57;31.4;;;19.6;;
60718;SDS011;46567;51.660;5.824;2023-05-10T02:30:57;32.5;;;20.5;;
60718;SDS011;46567;51.660;5.824;2023-05-10T02:35:57;35.8;;;21.3;;
60718;SDS011;46567;51.660;5.824;2023-05-10T02:40:57;42.6;;;23.0;;
60718;SDS011;46567;51.660;5.824;2023-05-10T02:45:57;44.1;;;24.2;;
60718;SDS011;46567;51.660;5.824;2023-05-10T02:50:59;48.0;;;25.1;;
60718;SDS011;46567;51.660;5.824;2023-05-10T02:56:05;51.9;;;26.4;;
60718;SDS011;46567;51.660;5.824;2023-05-10T03:00:57;48.5;;;25.5;;
60718;SDS011;46567;51.660;5.824;2023-05-10T03:05:57;52.4;;;26.6;;
60718;SDS011;46567;51.660;5.824;2023-05-10T03:11:13;45.8;;;25.1;;
60718;SDS011;46567;51.660;5.824;2023-05-10T03:16:15;50.9;;;26.8;;
60718;SDS011;46567;51.660;5.824;2023-05-10T03:20:59;48.0;;;26.9;;
60718;SDS011;46567;51.660;5.824;2023-05-10T03:25:57;48.8;;;25.9;;
60718;SDS011;46567;51.660;5.824;2023-05-10T03:30:57;50.1;;;25.7;;
60718;SDS011;46567;51.660;5.824;2023-05-10T03:35:57;48.9;;;27.5;;
60718;SDS011;46567;51.660;5.824;2023-05-10T03:40:57;50.4;;;27.2;;
60718;SDS011;46567;51.660;5.824;2023-05-10T03:45:57;48.2;;;26.9;;
60718;SDS011;46567;51.660;5.824;2023-05-10T03:50:57;51.2;;;27.9;;
60718;SDS011;46567;51.660;5.824;2023-05-10T03:55:57;48.0;;;26.7;;
60718;SDS011;46567;51.660;5.824;2023-05-10T04:00:57;48.6;;;27.9;;
60718;SDS011;46567;51.660;5.824;2023-05-10T04:05:58;47.6;;;27.8;;
60718;SDS011;46567;51.660;5.824;2023-05-10T04:10:57;47.9;;;27.4;;
60718;SDS011;46567;51.660;5.824;2023-05-10T04:15:57;52.8;;;29.0;;
60718;SDS011;46567;51.660;5.824;2023-05-10T04:20:57;50.7;;;28.6;;
60718;SDS011;46567;51.660;5.824;2023-05-10T04:25:58;54.3;;;29.7;;
60718;SDS011;46567;51.660;5.824;2023-05-10T04:31:00;52.6;;;29.2;;
60718;SDS011;46567;51.660;5.824;2023-05-10T04:35:57;53.5;;;29.5;;
60718;SDS011;46567;51.660;5.824;2023-05-10T04:41:03;51.3;;;29.1;;
60718;SDS011;46567;51.660;5.824;2023-05-10T04:45:57;51.2;;;29.0;;
60718;SDS011;46567;51.660;5.824;2023-05-10T04:50:57;53.4;;;29.9;;
60718;SDS011;46567;51.660;5.824;2023-05-10T04:55:57;55.3;;;29.8;;
60718;SDS011;46567;51.660;5.824;2023-05-10T05:01:03;51.7;;;28.9;;
60718;SDS011;46567;51.660;5.824;2023-05-10T05:05:57;44.8;;;26.3;;
60718;SDS011;46567;51.660;5.824;2023-05-10T05:10:57;46.5;;;25.9;;
60718;SDS011;46567;51.660;5.824;2023-05-10T05:15:59;43.7;;;26.0;;
60718;SDS011;46567;51.660;5.824;2023-05-10T05:20:57;44.8;;;25.8;;
60718;SDS011;46567;51.660;5.824;2023-05-10T05:25:57;43.8;;;24.2;;
60718;SDS011;46567;51.660;5.824;2023-05-10T05:30:57;46.7;;;23.7;;
60718;SDS011;46567;51.660;5.824;2023-05-10T05:35:59;46.5;;;24.1;;
60718;SDS011;46567;51.660;5.824;2023-05-10T05:40:58;39.9;;;23.0;;
60718;SDS011;46567;51.660;5.824;2023-05-10T05:45:57;45.0;;;22.5;;
60718;SDS011;46567;51.660;5.824;2023-05-10T05:50:57;39.6;;;22.0;;
60718;SDS011;46567;51.660;5.824;2023-05-10T05:55:58;35.2;;;20.4;;
60718;SDS011;46567;51.660;5.824;2023-05-10T06:00:57;38.5;;;21.2;;
60718;SDS011;46567;51.660;5.824;2023-05-10T06:05:57;38.9;;;21.1;;
60718;SDS011;46567;51.660;5.824;2023-05-10T06:10:57;35.6;;;20.5;;
60718;SDS011;46567;51.660;5.824;2023-05-10T06:15:57;42.1;;;23.2;;
60718;SDS011;46567;51.660;5.824;2023-05-10T06:20:57;36.6;;;22.2;;
60718;SDS011;46567;51.660;5.824;2023-05-10T06:25:57;42.1;;;23.5;;
60718;SDS011;46567;51.660;5.824;2023-05-10T06:30:57;41.7;;;23.1;;
60718;SDS011;46567;51.660;5.824;2023-05-10T06:35:57;39.2;;;22.3;;
60718;SDS011;46567;51.660;5.824;2023-05-10T06:40:57;40.3;;;22.6;;
60718;SDS011;46567;51.660;5.824;2023-05-10T06:45:57;34.9;;;22.2;;
60718;SDS011;46567;51.660;5.824;2023-05-10T06:50:57;37.1;;;22.4;;
60718;SDS011;46567;51.660;5.824;2023-05-10T06:55:57;36.0;;;21.4;;
60718;SDS011;46567;51.660;5.824;2023-05-10T07:01:01;36.0;;;20.6;;
60718;SDS011;46567;51.660;5.824;2023-05-10T07:06:00;34.7;;;20.4;;
60718;SDS011;46567;51.660;5.824;2023-05-10T07:10:59;30.4;;;19.2;;
60718;SDS011;46567;51.660;5.824;2023-05-10T07:15:57;33.6;;;19.9;;
60718;SDS011;46567;51.660;5.824;2023-05-10T07:20:57;28.8;;;18.4;;
60718;SDS011;46567;51.660;5.824;2023-05-10T07:25:57;31.9;;;19.0;;
60718;SDS011;46567;51.660;5.824;2023-05-10T07:30:57;29.4;;;18.4;;
60718;SDS011;46567;51.660;5.824;2023-05-10T07:35:57;33.1;;;19.8;;
60718;SDS011;46567;51.660;5.824;2023-05-10T07:40:57;32.1;;;19.6;;
60718;SDS011;46567;51.660;5.824;2023-05-10T07:45:57;30.0;;;19.7;;
60718;SDS011;46567;51.660;5.824;2023-05-10T07:50:57;30.6;;;19.2;;
60718;SDS011;46567;51.660;5.824;2023-05-10T07:55:58;33.6;;;18.7;;
60718;SDS011;46567;51.660;5.824;2023-05-10T08:00:57;33.5;;;19.2;;
60718;SDS011;46567;51.660;5.824;2023-05-10T08:05:57;34.3;;;20.5;;
60718;SDS011;46567;51.660;5.824;2023-05-10T08:10:57;35.5;;;22.1;;
60718;SDS011;46567;51.660;5.824;2023-05-10T08:15:57;36.7;;;21.7;;
60718;SDS011;46567;51.660;5.824;2023-05-10T08:20:57;34.1;;;22.3;;
60718;SDS011;46567;51.660;5.824;2023-05-10T08:25:57;32.3;;;21.7;;
60718;SDS011;46567;51.660;5.824;2023-05-10T08:30:57;29.8;;;20.4;;
60718;SDS011;46567;51.660;5.824;2023-05-10T08:35:57;30.2;;;20.0;;
60718;SDS011;46567;51.660;5.824;2023-05-10T08:40:57;29.7;;;18.8;;
60718;SDS011;46567;51.660;5.824;2023-05-10T08:46:01;28.9;;;17.9;;
60718;SDS011;46567;51.660;5.824;2023-05-10T08:51:00;28.7;;;17.9;;
60718;SDS011;46567;51.660;5.824;2023-05-10T08:55:57;29.3;;;18.9;;
60718;SDS011;46567;51.660;5.824;2023-05-10T09:00:57;29.7;;;19.5;;
60718;SDS011;46567;51.660;5.824;2023-05-10T09:05:57;26.1;;;18.7;;
60718;SDS011;46567;51.660;5.824;2023-05-10T09:10:57;30.1;;;20.2;;
60718;SDS011;46567;51.660;5.824;2023-05-10T09:15:58;28.1;;;20.5;;
60718;SDS011;46567;51.660;5.824;2023-05-10T09:20:57;29.7;;;21.5;;
60718;SDS011;46567;51.660;5.824;2023-05-10T09:26:02;26.5;;;20.1;;
60718;SDS011;46567;51.660;5.824;2023-05-10T09:30:57;28.9;;;20.3;;
60718;SDS011;46567;51.660;5.824;2023-05-10T09:36:06;27.3;;;19.2;;
60718;SDS011;46567;51.660;5.824;2023-05-10T09:40:57;23.8;;;17.6;;
60718;SDS011;46567;51.660;5.824;2023-05-10T09:45:57;23.6;;;17.6;;
60718;SDS011;46567;51.660;5.824;2023-05-10T09:50:57;23.2;;;18.0;;
60718;SDS011;46567;51.660;5.824;2023-05-10T09:55:57;23.9;;;16.5;;
60718;SDS011;46567;51.660;5.824;2023-05-10T10:00:57;25.2;;;17.3;;
60718;SDS011;46567;51.660;5.824;2023-05-10T10:05:57;24.5;;;16.8;;
60718;SDS011;46567;51.660;5.824;2023-05-10T10:10:57;23.4;;;16.1;;
60718;SDS011;46567;51.660;5.824;2023-05-10T10:15:57;19.9;;;15.5;;
60718;SDS011;46567;51.660;5.824;2023-05-10T10:20:58;20.5;;;14.7;;
60718;SDS011;46567;51.660;5.824;2023-05-10T10:25:58;17.0;;;14.2;;
60718;SDS011;46567;51.660;5.824;2023-05-10T10:31:11;18.2;;;14.8;;
60718;SDS011;46567;51.660;5.824;2023-05-10T10:35:58;16.3;;;13.5;;
60718;SDS011;46567;51.660;5.824;2023-05-10T10:41:05;18.2;;;13.8;;
60718;SDS011;46567;51.660;5.824;2023-05-10T10:46:12;17.0;;;13.0;;
60718;SDS011;46567;51.660;5.824;2023-05-10T10:50:57;16.1;;;12.6;;
60718;SDS011;46567;51.660;5.824;2023-05-10T10:56:06;14.2;;;11.8;;
60718;SDS011;46567;51.660;5.824;2023-05-10T11:01:10;14.8;;;11.3;;
60718;SDS011;46567;51.660;5.824;2023-05-10T11:05:58;16.2;;;11.5;;
60718;SDS011;46567;51.660;5.824;2023-05-10T11:11:06;16.6;;;11.8;;
60718;SDS011;46567;51.660;5.824;2023-05-10T11:15:58;16.7;;;12.2;;
60718;SDS011;46567;51.660;5.824;2023-05-10T11:21:00;17.9;;;12.6;;
60718;SDS011;46567;51.660;5.824;2023-05-10T11:25:58;16.7;;;12.1;;
60718;SDS011;46567;51.660;5.824;2023-05-10T11:30:57;15.8;;;12.0;;
60718;SDS011;46567;51.660;5.824;2023-05-10T11:35:57;19.6;;;13.6;;
60718;SDS011;46567;51.660;5.824;2023-05-10T11:41:59;16.0;;;12.9;;
60718;SDS011;46567;51.660;5.824;2023-05-10T11:46:59;16.5;;;13.0;;
60718;SDS011;46567;51.660;5.824;2023-05-10T11:52:06;15.8;;;11.5;;
60718;SDS011;46567;51.660;5.824;2023-05-10T11:56:59;15.8;;;10.9;;
60718;SDS011;46567;51.660;5.824;2023-05-10T12:01:58;16.8;;;12.4;;
60718;SDS011;46567;51.660;5.824;2023-05-10T12:06:59;16.1;;;12.9;;
60718;SDS011;46567;51.660;5.824;2023-05-10T12:11:59;16.0;;;13.2;;
60718;SDS011;46567;51.660;5.824;2023-05-10T12:16:59;16.7;;;12.3;;
60718;SDS011;46567;51.660;5.824;2023-05-10T12:21:58;19.4;;;13.9;;
60718;SDS011;46567;51.660;5.824;2023-05-10T12:26:59;15.3;;;12.8;;
60718;SDS011;46567;51.660;5.824;2023-05-10T12:31:59;15.5;;;12.3;;
60718;SDS011;46567;51.660;5.824;2023-05-10T12:36:59;20.3;;;12.1;;
60718;SDS011;46567;51.660;5.824;2023-05-10T12:41:59;17.7;;;13.0;;
60718;SDS011;46567;51.660;5.824;2023-05-10T12:46:58;14.9;;;12.9;;
60718;SDS011;46567;51.660;5.824;2023-05-10T12:51:58;17.3;;;13.1;;
60718;SDS011;46567;51.660;5.824;2023-05-10T12:56:58;14.1;;;11.3;;
60718;SDS011;46567;51.660;5.824;2023-05-10T13:01:59;13.5;;;11.7;;
60718;SDS011;46567;51.660;5.824;2023-05-10T13:06:59;16.1;;;13.2;;
60718;SDS011;46567;51.660;5.824;2023-05-10T13:11:59;14.2;;;12.0;;
60718;SDS011;46567;51.660;5.824;2023-05-10T13:16:59;14.4;;;10.3;;
60718;SDS011;46567;51.660;5.824;2023-05-10T13:22:00;11.7;;;9.7;;
60718;SDS011;46567;51.660;5.824;2023-05-10T13:26:59;11.6;;;9.9;;
60718;SDS011;46567;51.660;5.824;2023-05-10T13:31:59;12.4;;;9.5;;
60718;SDS011;46567;51.660;5.824;2023-05-10T13:36:59;11.7;;;9.4;;
60718;SDS011;46567;51.660;5.824;2023-05-10T13:41:58;12.0;;;10.4;;
60718;SDS011;46567;51.660;5.824;2023-05-10T13:46:59;13.0;;;9.7;;
60718;SDS011;46567;51.660;5.824;2023-05-10T13:51:59;14.7;;;11.2;;
60718;SDS011;46567;51.660;5.824;2023-05-10T13:56:59;14.5;;;11.1;;
60718;SDS011;46567;51.660;5.824;2023-05-10T14:01:59;17.3;;;13.9;;
60718;SDS011;46567;51.660;5.824;2023-05-10T14:06:59;15.5;;;11.5;;
60718;SDS011;46567;51.660;5.824;2023-05-10T14:11:59;11.5;;;9.0;;
60718;SDS011;46567;51.660;5.824;2023-05-10T14:16:59;9.0;;;7.0;;
60718;SDS011;46567;51.660;5.824;2023-05-10T14:21:59;10.3;;;8.0;;
60718;SDS011;46567;51.660;5.824;2023-05-10T14:26:59;9.0;;;7.5;;
60718;SDS011;46567;51.660;5.824;2023-05-10T14:31:59;4.9;;;4.4;;
60718;SDS011;46567;51.660;5.824;2023-05-10T14:36:59;2.5;;;2.3;;
60718;SDS011;46567;51.660;5.824;2023-05-10T14:41:59;2.2;;;2.0;;
60718;SDS011;46567;51.660;5.824;2023-05-10T14:46:59;2.5;;;2.3;;
60718;SDS011;46567;51.660;5.824;2023-05-10T14:51:59;3.7;;;3.4;;
60718;SDS011;46567;51.660;5.824;2023-05-10T14:56:59;4.4;;;3.8;;
60718;SDS011;46567;51.660;5.824;2023-05-10T15:01:59;4.5;;;3.9;;
60718;SDS011;46567;51.660;5.824;2023-05-10T15:06:59;4.7;;;4.3;;
60718;SDS011;46567;51.660;5.824;2023-05-10T15:11:59;5.4;;;4.8;;
60718;SDS011;46567;51.660;5.824;2023-05-10T15:16:59;6.2;;;5.5;;
60718;SDS011;46567;51.660;5.824;2023-05-10T15:21:59;7.1;;;5.7;;
60718;SDS011;46567;51.660;5.824;2023-05-10T15:26:59;7.0;;;6.3;;
60718;SDS011;46567;51.660;5.824;2023-05-10T15:31:59;8.3;;;7.4;;
60718;SDS011;46567;51.660;5.824;2023-05-10T15:36:59;9.3;;;8.5;;
60718;SDS011;46567;51.660;5.824;2023-05-10T15:41:59;10.2;;;9.2;;
60718;SDS011;46567;51.660;5.824;2023-05-10T15:46:59;11.2;;;10.2;;
60718;SDS011;46567;51.660;5.824;2023-05-10T15:51:59;11.9;;;10.8;;
60718;SDS011;46567;51.660;5.824;2023-05-10T15:56:59;13.8;;;12.3;;
60718;SDS011;46567;51.660;5.824;2023-05-10T16:01:59;14.3;;;12.9;;
60718;SDS011;46567;51.660;5.824;2023-05-10T16:06:59;14.4;;;13.0;;
60718;SDS011;46567;51.660;5.824;2023-05-10T16:11:59;15.6;;;13.9;;
60718;SDS011;46567;51.660;5.824;2023-05-10T16:16:59;15.4;;;13.8;;
60718;SDS011;46567;51.660;5.824;2023-05-10T16:21:59;16.2;;;14.5;;
60718;SDS011;46567;51.660;5.824;2023-05-10T16:26:59;15.4;;;13.8;;
60718;SDS011;46567;51.660;5.824;2023-05-10T16:31:59;15.1;;;13.6;;
60718;SDS011;46567;51.660;5.824;2023-05-10T16:36:59;15.5;;;13.6;;
60718;SDS011;46567;51.660;5.824;2023-05-10T16:41:59;15.9;;;14.0;;
60718;SDS011;46567;51.660;5.824;2023-05-10T16:46:59;15.2;;;13.7;;
60718;SDS011;46567;51.660;5.824;2023-05-10T16:51:59;15.9;;;14.0;;
60718;SDS011;46567;51.660;5.824;2023-05-10T16:56:59;14.6;;;13.1;;
60718;SDS011;46567;51.660;5.824;2023-05-10T17:01:59;14.8;;;13.3;;
60718;SDS011;46567;51.660;5.824;2023-05-10T17:06:59;16.1;;;14.1;;
60718;SDS011;46567;51.660;5.824;2023-05-10T17:11:59;18.4;;;14.0;;
60718;SDS011;46567;51.660;5.824;2023-05-10T17:16:59;13.3;;;11.9;;
60718;SDS011;46567;51.660;5.824;2023-05-10T17:21:59;13.4;;;12.0;;
60718;SDS011;46567;51.660;5.824;2023-05-10T17:26:59;13.8;;;11.8;;
60718;SDS011;46567;51.660;5.824;2023-05-10T17:31:59;14.7;;;12.9;;
60718;SDS011;46567;51.660;5.824;2023-05-10T17:36:59;14.6;;;12.9;;
60718;SDS011;46567;51.660;5.824;2023-05-10T17:41:59;15.1;;;13.2;;
60718;SDS011;46567;51.660;5.824;2023-05-10T17:46:59;14.1;;;12.5;;
60718;SDS011;46567;51.660;5.824;2023-05-10T17:51:59;15.5;;;13.5;;
60718;SDS011;46567;51.660;5.824;2023-05-10T17:56:59;15.8;;;13.6;;
60718;SDS011;46567;51.660;5.824;2023-05-10T18:01:59;16.2;;;14.5;;
60718;SDS011;46567;51.660;5.824;2023-05-10T18:06:59;16.6;;;13.8;;
60718;SDS011;46567;51.660;5.824;2023-05-10T18:12:00;18.4;;;15.2;;
60718;SDS011;46567;51.660;5.824;2023-05-10T18:16:59;17.1;;;15.2;;
60718;SDS011;46567;51.660;5.824;2023-05-10T18:21:59;18.2;;;15.8;;
60718;SDS011;46567;51.660;5.824;2023-05-10T18:26:59;17.2;;;15.3;;
60718;SDS011;46567;51.660;5.824;2023-05-10T18:31:59;19.6;;;16.4;;
60718;SDS011;46567;51.660;5.824;2023-05-10T18:36:59;19.3;;;17.2;;
60718;SDS011;46567;51.660;5.824;2023-05-10T18:41:59;20.5;;;17.6;;
60718;SDS011;46567;51.660;5.824;2023-05-10T18:46:59;20.4;;;17.9;;
60718;SDS011;46567;51.660;5.824;2023-05-10T18:51:59;18.4;;;16.5;;
60718;SDS011;46567;51.660;5.824;2023-05-10T18:56:59;20.1;;;17.0;;
60718;SDS011;46567;51.660;5.824;2023-05-10T19:01:59;20.4;;;18.2;;
60718;SDS011;46567;51.660;5.824;2023-05-10T19:06:59;22.3;;;19.6;;
60718;SDS011;46567;51.660;5.824;2023-05-10T19:11:59;20.5;;;17.6;;
60718;SDS011;46567;51.660;5.824;2023-05-10T19:16:59;20.5;;;16.5;;
60718;SDS011;46567;51.660;5.824;2023-05-10T19:21:59;20.6;;;15.6;;
60718;SDS011;46567;51.660;5.824;2023-05-10T19:26:59;19.1;;;15.6;;
60718;SDS011;46567;51.660;5.824;2023-05-10T19:31:59;17.1;;;13.9;;
60718;SDS011;46567;51.660;5.824;2023-05-10T19:36:59;13.0;;;11.4;;
60718;SDS011;46567;51.660;5.824;2023-05-10T19:41:59;11.0;;;8.4;;
60718;SDS011;46567;51.660;5.824;2023-05-10T19:46:59;8.1;;;7.2;;
60718;SDS011;46567;51.660;5.824;2023-05-10T19:51:59;8.4;;;7.2;;
60718;SDS011;46567;51.660;5.824;2023-05-10T19:56:59;8.0;;;7.2;;
60718;SDS011;46567;51.660;5.824;2023-05-10T20:01:59;7.9;;;7.1;;
60718;SDS011;46567;51.660;5.824;2023-05-10T20:06:59;7.7;;;6.9;;
60718;SDS011;46567;51.660;5.824;2023-05-10T20:11:59;7.4;;;6.6;;
60718;SDS011;46567;51.660;5.824;2023-05-10T20:16:59;8.9;;;7.2;;
60718;SDS011;46567;51.660;5.824;2023-05-10T20:21:59;7.8;;;6.9;;
60718;SDS011;46567;51.660;5.824;2023-05-10T20:26:59;8.6;;;7.4;;
60718;SDS011;46567;51.660;5.824;2023-05-10T20:31:59;10.2;;;8.0;;
60718;SDS011;46567;51.660;5.824;2023-05-10T20:36:59;8.1;;;7.0;;
60718;SDS011;46567;51.660;5.824;2023-05-10T20:41:59;8.9;;;7.4;;
60718;SDS011;46567;51.660;5.824;2023-05-10T20:46:59;10.4;;;7.9;;
60718;SDS011;46567;51.660;5.824;2023-05-10T20:51:59;10.5;;;9.0;;
60718;SDS011;46567;51.660;5.824;2023-05-10T20:56:59;10.3;;;9.2;;
60718;SDS011;46567;51.660;5.824;2023-05-10T21:01:59;11.9;;;10.3;;
60718;SDS011;46567;51.660;5.824;2023-05-10T21:06:59;13.6;;;10.8;;
60718;SDS011;46567;51.660;5.824;2023-05-10T21:11:59;12.8;;;11.2;;
60718;SDS011;46567;51.660;5.824;2023-05-10T21:16:59;17.0;;;12.4;;
60718;SDS011;46567;51.660;5.824;2023-05-10T21:26:59;16.0;;;13.5;;
60718;SDS011;46567;51.660;5.824;2023-05-10T21:31:59;17.2;;;13.0;;
60718;SDS011;46567;51.660;5.824;2023-05-10T21:36:59;18.8;;;14.1;;
60718;SDS011;46567;51.660;5.824;2023-05-10T21:41:59;18.6;;;13.7;;
60718;SDS011;46567;51.660;5.824;2023-05-10T21:46:59;18.2;;;14.3;;
60718;SDS011;46567;51.660;5.824;2023-05-10T21:51:59;16.8;;;14.4;;
60718;SDS011;46567;51.660;5.824;2023-05-10T21:56:59;17.9;;;14.2;;
60718;SDS011;46567;51.660;5.824;2023-05-10T22:01:59;19.6;;;15.2;;
60718;SDS011;46567;51.660;5.824;2023-05-10T22:06:59;18.1;;;15.3;;
60718;SDS011;46567;51.660;5.824;2023-05-10T22:11:59;22.6;;;16.0;;
60718;SDS011;46567;51.660;5.824;2023-05-10T22:16:59;20.2;;;15.5;;
60718;SDS011;46567;51.660;5.824;2023-05-10T22:21:59;19.9;;;16.2;;
60718;SDS011;46567;51.660;5.824;2023-05-10T22:26:59;20.2;;;16.3;;
60718;SDS011;46567;51.660;5.824;2023-05-10T22:31:59;20.8;;;16.1;;
60718;SDS011;46567;51.660;5.824;2023-05-10T22:36:59;20.8;;;16.1;;
60718;SDS011;46567;51.660;5.824;2023-05-10T22:41:59;19.3;;;15.8;;
60718;SDS011;46567;51.660;5.824;2023-05-10T22:46:59;22.0;;;16.5;;
60718;SDS011;46567;51.660;5.824;2023-05-10T22:51:59;23.1;;;17.3;;
60718;SDS011;46567;51.660;5.824;2023-05-10T22:56:59;21.8;;;17.3;;
60718;SDS011;46567;51.660;5.824;2023-05-10T23:01:59;23.6;;;16.9;;
60718;SDS011;46567;51.660;5.824;2023-05-10T23:06:59;21.7;;;17.7;;
60718;SDS011;46567;51.660;5.824;2023-05-10T23:11:59;22.6;;;17.2;;
60718;SDS011;46567;51.660;5.824;2023-05-10T23:16:59;22.6;;;17.3;;
60718;SDS011;46567;51.660;5.824;2023-05-10T23:21:59;21.9;;;17.8;;
60718;SDS011;46567;51.660;5.824;2023-05-10T23:26:59;25.7;;;19.2;;
60718;SDS011;46567;51.660;5.824;2023-05-10T23:31:59;25.3;;;18.0;;
60718;SDS011;46567;51.660;5.824;2023-05-10T23:36:59;23.7;;;17.3;;
60718;SDS011;46567;51.660;5.824;2023-05-10T23:41:59;25.1;;;18.9;;
60718;SDS011;46567;51.660;5.824;2023-05-10T23:46:59;26.4;;;18.6;;
60718;SDS011;46567;51.660;5.824;2023-05-10T23:51:59;24.5;;;17.8;;
60718;SDS011;46567;51.660;5.824;2023-05-10T23:56:59;25.2;;;18.4;;
